Terminal Aerodrome Forecast
Issued by NWS North Platte, NE

Home | Current Version | Previous Version | Text Only | Print | Product List | Glossary On
Versions: 1 2 3 4 5 6 7 8 9 10 11 12 13 14 15 16
000
FTUS43 KLBF 222340 AAC
TAFLBF
TAF AMD
KLBF 222340Z 2300/2324 18014G22KT P6SM SCT100 OVC250
     FM230300 14012KT P6SM SCT100 BKN200 WS015/18050KT
     FM230900 10009KT P6SM BKN200
     FM231200 07009KT P6SM -SHRA VCTS SCT050 BKN100CB
     FM231600 15010KT P6SM -SHRA VCTS SCT030 BKN050 OVC100CB=

USA.gov is the U.S. government's official web portal to all federal, state and local government web resources and services.